Time;durP1;ratioP1;P1;durP2;ratioP2;P2;SDS_P1;SDS_P2;PMS_P1;PMS_P2;Temp;Humidity;BMP_temperature;BMP_pressure;BME280_temperature;BME280_humidity;BME280_pressure;Samples;Min_cycle;Max_cycle;Signal;HPM_P1;HPM_P2
2021/06/28 00:00:42;;;;;;;12.90;9.25;;;;;;;16.93;100.00;97825.03;5012433;28;20115;-79
2021/06/28 00:03:10;;;;;;;18.08;9.30;;;;;;;16.96;100.00;97816.13;5010479;28;20117;-78
2021/06/28 00:05:40;;;;;;;14.65;8.88;;;;;;;16.95;100.00;97811.81;4993428;28;20046;-78
2021/06/28 00:08:07;;;;;;;11.10;8.98;;;;;;;17.00;100.00;97811.56;4993645;28;20046;-79
2021/06/28 00:10:34;;;;;;;12.48;7.57;;;;;;;17.02;100.00;97809.25;4996263;28;20553;-78
2021/06/28 00:13:04;;;;;;;14.27;8.43;;;;;;;17.02;100.00;97808.47;5010848;28;20041;-79
2021/06/28 00:15:38;;;;;;;13.90;9.75;;;;;;;16.97;100.00;97815.00;5010996;28;20042;-78
2021/06/28 00:18:10;;;;;;;12.52;8.77;;;;;;;16.97;100.00;97809.53;4995179;28;20046;-77
2021/06/28 00:20:37;;;;;;;12.45;9.57;;;;;;;17.02;100.00;97809.25;5012827;28;20076;-77
2021/06/28 00:23:03;;;;;;;18.13;9.10;;;;;;;16.98;100.00;97802.13;5011250;28;20057;-79
2021/06/28 00:25:31;;;;;;;12.38;9.23;;;;;;;17.01;100.00;97809.63;4977148;28;20061;-79
2021/06/28 00:27:59;;;;;;;16.48;9.65;;;;;;;16.98;100.00;97816.56;5011721;28;20045;-79
2021/06/28 00:30:30;;;;;;;15.32;10.30;;;;;;;17.02;100.00;97808.47;5010817;28;20045;-79
2021/06/28 00:32:57;;;;;;;16.95;9.60;;;;;;;16.99;100.00;97815.44;4993524;28;20052;-80
2021/06/28 00:35:24;;;;;;;16.88;10.00;;;;;;;16.98;100.00;97816.56;5021573;28;20045;-79
2021/06/28 00:37:50;;;;;;;16.25;10.13;;;;;;;16.99;100.00;97811.91;5016118;28;20058;-80
2021/06/28 00:40:19;;;;;;;14.23;9.55;;;;;;;17.02;100.00;97813.94;5014938;28;20057;-80
2021/06/28 00:42:46;;;;;;;17.05;10.63;;;;;;;17.02;100.00;97817.47;5015717;28;20038;-81
2021/06/28 00:45:25;;;;;;;14.52;10.65;;;;;;;17.06;100.00;97818.34;4996747;28;20049;-80
2021/06/28 00:47:53;;;;;;;16.85;10.77;;;;;;;17.11;100.00;97814.56;5015238;28;20045;-80
2021/06/28 00:50:22;;;;;;;15.27;11.23;;;;;;;17.18;100.00;97829.22;5015521;28;20669;-80
2021/06/28 00:52:53;;;;;;;14.07;11.30;;;;;;;17.13;100.00;97818.53;4997017;28;20049;-80
2021/06/28 00:55:20;;;;;;;16.17;12.43;;;;;;;17.14;100.00;97822.03;4995441;28;20092;-80
2021/06/28 00:57:46;;;;;;;16.35;11.85;;;;;;;17.14;100.00;97820.13;4995959;28;20080;-81
2021/06/28 01:00:15;;;;;;;17.40;12.25;;;;;;;17.16;100.00;97817.03;4995786;28;20049;-80
2021/06/28 01:02:42;;;;;;;17.67;12.48;;;;;;;17.13;100.00;97807.59;4996123;28;20060;-80
2021/06/28 01:05:15;;;;;;;13.82;12.35;;;;;;;17.13;100.00;97801.34;4995883;28;20061;-81
2021/06/28 01:07:43;;;;;;;16.60;12.07;;;;;;;17.18;100.00;97809.28;4994803;28;20042;-81
2021/06/28 01:10:11;;;;;;;14.40;12.25;;;;;;;17.18;100.00;97801.06;5012005;28;20050;-81
2021/06/28 01:12:39;;;;;;;18.48;12.65;;;;;;;17.15;100.00;97790.81;4996715;28;20049;-80
2021/06/28 01:15:07;;;;;;;14.02;11.43;;;;;;;17.19;100.00;97791.69;4995407;28;20050;-81
2021/06/28 01:17:35;;;;;;;17.88;11.82;;;;;;;17.18;100.00;97787.38;5013417;28;20061;-81
2021/06/28 01:20:06;;;;;;;15.10;12.20;;;;;;;17.22;100.00;97796.47;4979214;28;20042;-81
2021/06/28 01:22:35;;;;;;;16.73;11.85;;;;;;;17.23;100.00;97793.38;4995328;28;20073;-80
2021/06/28 01:25:05;;;;;;;20.10;12.27;;;;;;;17.27;100.00;97794.25;4978238;28;20046;-81
2021/06/28 01:27:32;;;;;;;16.33;11.75;;;;;;;17.27;100.00;97791.50;4995885;28;20308;-80
2021/06/28 01:29:59;;;;;;;19.08;12.75;;;;;;;17.31;100.00;97784.19;4985718;28;20041;-80
2021/06/28 01:32:26;;;;;;;16.73;11.40;;;;;;;17.32;100.00;97785.78;4997233;28;20045;-81
2021/06/28 01:34:53;;;;;;;15.13;11.18;;;;;;;17.38;100.00;97780.81;4992931;28;20077;-80
2021/06/28 01:37:22;;;;;;;18.00;11.85;;;;;;;17.32;100.00;97779.50;5011301;28;20516;-80
2021/06/28 01:39:51;;;;;;;15.45;11.32;;;;;;;17.32;100.00;97779.50;4993716;28;20041;-79
2021/06/28 01:42:18;;;;;;;15.52;11.30;;;;;;;17.39;100.00;97796.09;4980219;28;20046;-79
2021/06/28 01:44:45;;;;;;;17.77;11.60;;;;;;;17.38;100.00;97794.50;4993883;28;20418;-80
2021/06/28 01:47:12;;;;;;;17.80;11.35;;;;;;;17.38;100.00;97792.56;4979489;28;20063;-79
2021/06/28 01:49:39;;;;;;;14.15;11.32;;;;;;;17.39;100.00;97787.91;5013813;28;20041;-79
2021/06/28 01:52:07;;;;;;;15.27;10.95;;;;;;;17.43;100.00;97805.19;4995086;28;20041;-80
2021/06/28 01:54:34;;;;;;;16.55;10.77;;;;;;;17.37;100.00;97795.66;5012229;28;20049;-79
2021/06/28 01:57:01;;;;;;;17.05;11.75;;;;;;;17.38;100.00;97789.03;5015496;28;20144;-79
2021/06/28 01:59:34;;;;;;;16.05;12.05;;;;;;;17.33;100.00;97789.31;5012940;22;20053;-84
2021/06/28 02:02:03;;;;;;;18.90;12.40;;;;;;;17.31;100.00;97784.19;4994399;28;20192;-85
2021/06/28 02:04:30;;;;;;;23.73;12.55;;;;;;;17.33;100.00;97783.84;4961897;28;20068;-84
2021/06/28 02:06:59;;;;;;;17.77;12.57;;;;;;;17.24;100.00;97784.00;4958275;28;20042;-84
2021/06/28 02:09:32;;;;;;;17.23;12.20;;;;;;;17.23;100.00;97782.44;4994265;28;20457;-84
2021/06/28 02:11:59;;;;;;;19.23;12.88;;;;;;;17.20;100.00;97771.41;4976037;28;20116;-85
2021/06/28 02:14:26;;;;;;;16.25;11.50;;;;;;;17.21;100.00;97771.06;4958098;28;20046;-85
2021/06/28 02:16:53;;;;;;;15.23;12.10;;;;;;;17.21;100.00;97779.28;4982965;28;20050;-86
2021/06/28 02:19:19;;;;;;;19.98;12.52;;;;;;;17.17;100.00;97777.56;4980552;28;20053;-86
2021/06/28 02:21:47;;;;;;;17.70;11.70;;;;;;;17.16;100.00;97773.25;4978684;28;20057;-85
2021/06/28 02:24:15;;;;;;;18.50;12.40;;;;;;;17.17;100.00;97786.59;4965579;28;20053;-86
2021/06/28 02:26:44;;;;;;;14.85;11.98;;;;;;;17.13;100.00;97772.03;4964656;28;20058;-85
2021/06/28 02:29:11;;;;;;;15.75;11.90;;;;;;;17.16;100.00;97787.72;4960713;28;20572;-84
2021/06/28 02:31:39;;;;;;;19.33;12.60;;;;;;;17.15;100.00;97786.16;4977413;28;20046;-84
2021/06/28 02:34:06;;;;;;;16.52;11.55;;;;;;;17.17;100.00;97794.00;4961882;28;20165;-84
2021/06/28 02:36:34;;;;;;;17.85;11.77;;;;;;;17.18;100.00;97790.13;4964214;28;20050;-85
2021/06/28 02:39:03;;;;;;;16.35;12.10;;;;;;;17.16;100.00;97787.72;4980870;28;20053;-84
2021/06/28 02:41:30;;;;;;;18.50;12.23;;;;;;;17.10;100.00;97772.75;4988350;28;20491;-85
2021/06/28 02:43:57;;;;;;;20.80;12.10;;;;;;;17.12;100.00;97767.69;4966234;28;20144;-85
2021/06/28 02:46:24;;;;;;;14.80;11.73;;;;;;;17.19;100.00;97787.00;4982339;28;20116;-85
2021/06/28 02:48:51;;;;;;;17.50;12.13;;;;;;;17.19;100.00;97775.28;4980656;28;20497;-83
2021/06/28 02:51:20;;;;;;;18.50;11.75;;;;;;;17.20;100.00;97782.34;4996650;28;20100;-83
2021/06/28 02:53:47;;;;;;;18.55;13.02;;;;;;;17.25;100.00;97784.81;4995441;28;20050;-85
2021/06/28 02:56:16;;;;;;;22.08;14.02;;;;;;;17.21;100.00;97781.22;4978749;28;20054;-84
2021/06/28 02:58:47;;;;;;;21.13;13.10;;;;;;;17.23;100.00;97779.69;4979084;28;20046;-85
2021/06/28 03:01:15;;;;;;;21.85;12.63;;;;;;;17.26;100.00;97786.41;4979028;28;20046;-85
2021/06/28 03:03:42;;;;;;;19.88;12.38;;;;;;;17.26;100.00;97783.66;4977955;28;20502;-85
2021/06/28 03:06:09;;;;;;;19.98;12.45;;;;;;;17.21;100.00;97771.06;4977502;28;20042;-84
2021/06/28 03:08:36;;;;;;;19.77;12.57;;;;;;;17.24;100.00;97777.75;4976689;28;20053;-83
2021/06/28 03:11:04;;;;;;;21.40;12.93;;;;;;;17.24;100.00;97775.81;4961352;28;20157;-84
2021/06/28 03:13:37;;;;;;;21.15;12.50;;;;;;;17.24;100.00;97769.56;4994722;28;20046;-84
2021/06/28 03:16:06;;;;;;;21.65;11.98;;;;;;;17.18;100.00;97758.09;4978079;28;20043;-85
2021/06/28 03:18:33;;;;;;;19.55;12.40;;;;;;;17.19;100.00;97756.91;4979379;28;20078;-85
2021/06/28 03:21:00;;;;;;;22.70;11.80;;;;;;;17.20;100.00;97754.97;4964261;28;20121;-85
2021/06/28 03:23:29;;;;;;;17.98;11.82;;;;;;;17.17;100.00;97761.97;4997839;28;20069;-85
2021/06/28 03:25:56;;;;;;;18.90;11.93;;;;;;;17.15;100.00;97764.25;4979695;28;20252;-84
2021/06/28 03:28:23;;;;;;;14.55;11.38;;;;;;;17.14;100.00;97759.94;4980883;28;20145;-84
2021/06/28 03:30:50;;;;;;;16.58;11.23;;;;;;;17.15;100.00;97753.31;4981984;28;20061;-84
2021/06/28 03:33:20;;;;;;;15.45;12.20;;;;;;;17.06;100.00;97760.91;4986408;28;20137;-86
2021/06/28 03:35:46;;;;;;;19.52;12.32;;;;;;;17.09;100.00;97759.41;4962935;28;20050;-86
2021/06/28 03:38:13;;;;;;;17.13;12.43;;;;;;;17.03;100.00;97763.56;4994013;28;20042;-84
2021/06/28 03:40:42;;;;;;;16.23;12.43;;;;;;;17.08;100.00;97761.38;4972924;28;20054;-85
2021/06/28 03:43:10;;;;;;;15.02;12.07;;;;;;;17.05;100.00;97756.59;4962137;28;20078;-84
2021/06/28 03:45:37;;;;;;;18.40;12.32;;;;;;;17.16;100.00;97768.56;4964546;28;20038;-84
2021/06/28 03:48:07;;;;;;;21.48;12.30;;;;;;;17.20;100.00;97772.19;4959291;28;20833;-86
2021/06/28 03:50:34;;;;;;;22.35;12.63;;;;;;;17.28;100.00;97767.69;4956787;28;20109;-86
2021/06/28 03:53:01;;;;;;;22.45;11.98;;;;;;;17.37;100.00;97771.81;4952606;28;20051;-86
2021/06/28 03:55:28;;;;;;;18.92;11.75;;;;;;;17.39;100.00;97771.47;4965394;28;20089;-85
2021/06/28 03:57:55;;;;;;;17.63;11.55;;;;;;;17.56;100.00;97779.31;4961162;28;20061;-86
2021/06/28 04:00:27;;;;;;;17.35;11.25;;;;;;;17.62;100.00;97774.38;4945571;28;20046;-86
2021/06/28 04:02:56;;;;;;;24.63;11.15;;;;;;;17.70;100.00;97768.72;4959350;28;20050;-84
2021/06/28 04:05:24;;;;;;;19.17;11.55;;;;;;;17.83;100.00;97767.41;4958164;28;20298;-84
2021/06/28 04:07:52;;;;;;;17.70;11.25;;;;;;;17.90;100.00;97770.31;4958532;28;20046;-84
2021/06/28 04:10:24;;;;;;;18.38;10.63;;;;;;;17.90;100.00;97770.31;4972879;28;20085;-84
2021/06/28 04:12:54;;;;;;;13.95;10.70;;;;;;;18.05;100.00;97774.94;4958104;28;20050;-76
2021/06/28 04:15:21;;;;;;;19.95;10.48;;;;;;;18.13;100.00;97784.09;4990031;28;20532;-75
2021/06/28 04:17:54;;;;;;;14.75;9.88;;;;;;;18.22;100.00;97762.72;4990442;28;20256;-76
2021/06/28 04:20:24;;;;;;;15.30;10.18;;;;;;;18.33;100.00;97763.75;4973258;28;20118;-77
2021/06/28 04:22:58;;;;;;;17.25;10.30;;;;;;;18.41;100.00;97772.91;4957995;28;20061;-77
2021/06/28 04:25:35;;;;;;;16.55;10.10;;;;;;;18.46;100.00;97775.34;4990234;28;20042;-77
2021/06/28 04:28:04;;;;;;;14.07;8.98;;;;;;;18.66;100.00;97776.91;4973254;28;20537;-76
2021/06/28 04:30:32;;;;;;;14.43;9.05;;;;;;;18.72;100.00;97764.50;4990590;28;20050;-76
2021/06/28 04:32:59;;;;;;;15.20;8.90;;;;;;;18.84;100.00;97760.81;4995622;28;20034;-82
2021/06/28 04:35:29;;;;;;;16.85;9.05;;;;;;;18.98;100.00;97764.56;4978327;28;20394;-82
2021/06/28 04:37:57;;;;;;;14.23;8.77;;;;;;;19.12;100.00;97764.03;4995750;28;20046;-82
2021/06/28 04:40:30;;;;;;;11.85;8.88;;;;;;;19.30;100.00;97773.34;4992463;28;20122;-80
2021/06/28 04:42:59;;;;;;;18.27;9.20;;;;;;;19.45;100.00;97766.13;4975996;28;20409;-81
2021/06/28 04:45:29;;;;;;;15.13;8.80;;;;;;;19.52;100.00;97772.53;4997336;28;20124;-81
2021/06/28 04:47:58;;;;;;;13.50;8.30;;;;;;;19.43;100.00;97758.28;4979636;28;20363;-82
2021/06/28 04:50:25;;;;;;;15.93;8.40;;;;;;;19.47;100.00;97761.88;4996084;28;20058;-82
2021/06/28 04:52:56;;;;;;;15.32;9.05;;;;;;;19.49;100.00;97761.47;4967777;28;20086;-81
2021/06/28 04:55:24;;;;;;;12.57;8.35;;;;;;;19.37;100.00;97767.16;4963012;28;20475;-82
2021/06/28 04:57:52;;;;;;;28.33;9.00;;;;;;;19.46;100.00;97765.75;4976710;28;20054;-81
2021/06/28 05:00:21;;;;;;;14.88;8.82;;;;;;;19.34;100.00;97768.69;4978545;28;20129;-85
2021/06/28 05:02:48;;;;;;;16.17;9.23;;;;;;;19.38;100.00;97769.59;4963107;28;20051;-85
2021/06/28 05:05:18;;;;;;;16.70;9.02;;;;;;;19.40;100.00;97764.50;4977916;28;20457;-85
2021/06/28 05:07:47;;;;;;;13.80;8.85;;;;;;;19.36;100.00;97758.13;4978135;28;20050;-85
2021/06/28 05:10:17;;;;;;;19.38;8.82;;;;;;;19.57;100.00;97760.44;4960815;28;20050;-79
2021/06/28 05:12:44;;;;;;;12.80;8.95;;;;;;;19.59;100.00;97764.38;4976728;28;20132;-84
2021/06/28 05:15:16;;;;;;;17.80;8.55;;;;;;;19.54;100.00;97756.47;4977117;28;20043;-87
2021/06/28 05:17:43;;;;;;;11.07;8.38;;;;;;;19.56;100.00;97754.13;4959950;28;20054;-86
2021/06/28 05:20:12;;;;;;;15.85;8.70;;;;;;;19.66;100.00;97774.69;4976362;28;20177;-85
2021/06/28 05:22:40;;;;;;;14.50;8.45;;;;;;;19.67;100.00;97763.31;4975817;28;20046;-83
2021/06/28 05:25:09;;;;;;;12.45;7.72;;;;;;;19.83;100.00;97776.91;4976331;28;20138;-84
2021/06/28 05:27:36;;;;;;;12.13;8.27;;;;;;;19.85;100.00;97777.31;4976661;28;20077;-86
2021/06/28 05:30:08;;;;;;;12.07;7.70;;;;;;;20.04;100.00;97777.19;4977302;28;20096;-85
2021/06/28 05:32:42;;;;;;;13.63;7.82;;;;;;;20.07;100.00;97778.41;4977730;28;20108;-85
2021/06/28 05:35:24;;;;;;;10.68;7.90;;;;;;;20.27;100.00;97774.34;4966131;28;20517;-85
2021/06/28 05:37:51;;;;;;;12.63;7.85;;;;;;;20.37;100.00;97766.22;4983263;28;20046;-85
2021/06/28 05:40:18;;;;;;;19.33;13.35;;;;;;;20.30;100.00;97757.13;4962266;28;20070;-85
2021/06/28 05:42:46;;;;;;;19.58;13.85;;;;;;;20.41;100.00;97774.53;4964621;28;20401;-86
2021/06/28 05:45:14;;;;;;;14.95;10.73;;;;;;;20.40;100.00;97779.25;4978355;28;20050;-85
2021/06/28 05:47:43;;;;;;;18.13;11.90;;;;;;;20.37;100.00;97773.69;4984786;28;20592;-86
2021/06/28 05:50:14;;;;;;;16.38;9.57;;;;;;;20.47;100.00;97781.25;4964514;28;20050;-87
2021/06/28 05:52:41;;;;;;;15.75;9.18;;;;;;;20.37;100.00;97779.19;4956277;28;20435;-87
2021/06/28 05:55:08;;;;;;;12.07;7.65;;;;;;;20.48;100.00;97780.09;4957466;28;20402;-86
2021/06/28 05:57:35;;;;;;;14.98;7.90;;;;;;;20.73;100.00;97781.16;4961383;28;20054;-87
2021/06/28 06:00:09;;;;;;;10.85;7.68;;;;;;;20.85;100.00;97780.88;4953638;28;20081;-85
2021/06/28 06:02:38;;;;;;;11.23;7.65;;;;;;;21.06;100.00;97780.31;4949447;28;20046;-85
2021/06/28 06:05:08;;;;;;;11.43;6.72;;;;;;;20.99;100.00;97781.03;4957357;28;20066;-87
2021/06/28 06:07:36;;;;;;;15.45;7.07;;;;;;;21.12;100.00;97781.56;4970148;28;20062;-86
2021/06/28 06:10:08;;;;;;;15.48;7.30;;;;;;;21.11;100.00;97788.25;4963051;28;20047;-87
2021/06/28 06:12:41;;;;;;;14.60;7.63;;;;;;;20.92;100.00;97775.47;4943373;28;20095;-88
2021/06/28 06:15:12;;;;;;;13.77;7.00;;;;;;;21.07;100.00;97788.22;4957047;28;20050;-86
2021/06/28 06:17:40;;;;;;;19.63;7.22;;;;;;;21.04;100.00;97777.13;4959558;28;20054;-85
2021/06/28 06:20:07;;;;;;;9.27;6.68;;;;;;;21.01;100.00;97795.19;4958984;28;20047;-85
2021/06/28 06:22:35;;;;;;;10.98;6.40;;;;;;;21.06;100.00;97797.63;4960481;28;20054;-85
2021/06/28 06:25:05;;;;;;;11.30;6.13;;;;;;;21.03;100.00;97798.34;4959421;28;20476;-85
2021/06/28 06:27:32;;;;;;;12.07;7.40;;;;;;;21.06;100.00;97803.13;4959904;28;20120;-85
2021/06/28 06:29:59;;;;;;;10.88;6.40;;;;;;;20.97;100.00;97788.88;4971115;28;20061;-86
2021/06/28 06:32:25;;;;;;;9.82;6.82;;;;;;;21.00;100.00;97801.09;5010117;28;20046;-87
2021/06/28 06:34:52;;;;;;;15.50;7.28;;;;;;;21.10;100.00;97797.69;4974034;28;20110;-87
2021/06/28 06:37:19;;;;;;;10.70;7.00;;;;;;;21.31;100.00;97797.06;4977710;28;20051;-84
2021/06/28 06:39:48;;;;;;;13.35;6.45;;;;;;;21.42;100.00;97781.44;4990298;28;20114;-87
2021/06/28 06:42:18;;;;;;;15.32;6.75;;;;;;;21.57;100.00;97794.94;4971346;28;20046;-86
2021/06/28 06:44:45;;;;;;;8.05;5.78;;;;;;;21.69;100.00;97791.84;4961954;28;20141;-84
2021/06/28 06:47:12;;;;;;;10.20;5.30;;;;;;;21.72;100.00;97782.03;4961070;28;20145;-87
2021/06/28 06:49:38;;;;;;;12.43;5.28;;;;;;;22.02;100.00;97795.59;4970293;28;20041;-90
2021/06/28 06:52:05;;;;;;;13.70;5.07;;;;;;;22.19;100.00;97803.19;4966041;28;20042;-83
2021/06/28 06:54:32;;;;;;;6.72;4.68;;;;;;;22.24;100.00;97792.59;4957591;28;20098;-85
2021/06/28 06:56:59;;;;;;;6.15;4.60;;;;;;;22.32;100.00;97799.69;4976191;28;20054;-82
2021/06/28 06:59:25;;;;;;;8.52;5.40;;;;;;;22.44;100.00;97798.56;4957421;28;20050;-85
2021/06/28 07:01:53;;;;;;;6.38;4.90;;;;;;;22.54;100.00;97794.25;4975075;28;20050;-85
2021/06/28 07:04:22;;;;;;;9.32;4.95;;;;;;;22.65;100.00;97790.41;4961065;28;20137;-85
2021/06/28 07:06:48;;;;;;;7.47;4.93;;;;;;;22.82;100.00;97791.59;4977566;28;20042;-83
2021/06/28 07:09:15;;;;;;;7.25;4.90;;;;;;;23.02;100.00;97790.09;4959070;28;20054;-83
2021/06/28 07:11:43;;;;;;;7.90;5.00;;;;;;;23.17;100.00;97793.66;4977215;28;20413;-86
2021/06/28 07:14:11;;;;;;;10.50;4.97;;;;;;;23.29;100.00;97798.78;4976530;28;20046;-83
2021/06/28 07:16:38;;;;;;;8.65;4.70;;;;;;;23.47;100.00;97799.59;4958651;28;20058;-82
2021/06/28 07:19:06;;;;;;;8.70;5.13;;;;;;;23.70;100.00;97797.22;4961595;28;20050;-88
2021/06/28 07:21:36;;;;;;;8.70;4.50;;;;;;;23.83;100.00;97803.13;4969012;28;20094;-87
2021/06/28 07:24:04;;;;;;;6.75;4.50;;;;;;;23.95;100.00;97797.19;4980682;28;20042;-85
2021/06/28 07:26:32;;;;;;;7.78;4.68;;;;;;;24.16;100.00;97800.69;4964638;28;20554;-85
2021/06/28 07:28:59;;;;;;;7.18;4.78;;;;;;;24.23;100.00;97810.97;4963686;28;20057;-87
2021/06/28 07:31:27;;;;;;;10.07;4.90;;;;;;;24.55;100.00;97791.44;4962567;28;20046;-85
2021/06/28 07:33:58;;;;;;;10.02;4.72;;;;;;;24.64;100.00;97792.59;4961887;28;20050;-86
2021/06/28 07:36:24;;;;;;;7.43;4.68;;;;;;;24.69;100.00;97792.19;4965503;28;20143;-86
2021/06/28 07:38:54;;;;;;;10.68;4.60;;;;;;;24.81;100.00;97792.91;4991585;28;20066;-85
2021/06/28 07:41:21;;;;;;;7.07;3.90;;;;;;;24.85;100.00;97802.00;4986360;28;20050;-84
2021/06/28 07:43:48;;;;;;;8.20;4.32;;;;;;;24.95;100.00;97809.47;4963983;28;20077;-86
2021/06/28 07:46:17;;;;;;;10.75;3.85;;;;;;;24.93;100.00;97803.56;4964403;28;20046;-85
2021/06/28 07:48:45;;;;;;;5.57;4.10;;;;;;;25.08;100.00;97794.75;4964116;28;20057;-84
2021/06/28 07:51:11;;;;;;;7.50;4.20;;;;;;;25.25;100.00;97799.34;4962079;28;20504;-86
2021/06/28 07:53:42;;;;;;;5.82;4.28;;;;;;;25.42;100.00;97788.53;4962263;28;20046;-85
2021/06/28 07:56:17;;;;;;;6.88;4.10;;;;;;;25.50;100.00;97787.31;4976882;28;20038;-84
2021/06/28 07:58:49;;;;;;;5.90;4.20;;;;;;;25.63;100.00;97788.41;4977715;28;20168;-84
2021/06/28 08:01:17;;;;;;;4.55;4.05;;;;;;;25.61;100.00;97766.59;4982871;28;20052;-86
2021/06/28 08:03:45;;;;;;;5.55;4.20;;;;;;;25.69;100.00;97775.66;4961087;28;20096;-86
2021/06/28 08:06:20;;;;;;;6.93;4.28;;;;;;;25.87;100.00;97785.38;4960644;28;20050;-87
2021/06/28 08:08:52;;;;;;;7.97;3.97;;;;;;;26.11;100.00;97775.22;4961569;28;20054;-86
2021/06/28 08:11:21;;;;;;;4.78;4.10;;;;;;;26.26;100.00;97782.19;4961036;28;20050;-84
2021/06/28 08:13:51;;;;;;;7.63;4.18;;;;;;;26.27;100.00;97778.22;4986388;23;20398;-80
2021/06/28 08:16:19;;;;;;;6.18;4.18;;;;;;;26.38;100.00;97778.88;4993610;28;20035;-80
2021/06/28 08:18:51;;;;;;;7.05;4.15;;;;;;;26.43;100.00;97774.84;5010677;28;20137;-81
2021/06/28 08:21:34;;;;;;;4.82;4.00;;;;;;;26.47;100.00;97778.38;4994344;28;20069;-81
2021/06/28 08:24:02;;;;;;;5.40;3.75;;;;;;;26.40;100.00;97778.47;4996138;28;20296;-82
2021/06/28 08:26:28;;;;;;;4.38;3.97;;;;;;;26.47;100.00;97768.06;4995981;28;20421;-81
2021/06/28 08:28:56;;;;;;;6.88;4.25;;;;;;;26.53;100.00;97771.94;4996030;28;20048;-81
2021/06/28 08:31:23;;;;;;;4.80;3.90;;;;;;;26.42;100.00;97764.94;4994407;28;20065;-81
2021/06/28 08:34:10;;;;;;;9.10;3.90;;;;;;;26.49;100.00;97773.19;5028307;28;20460;-81
2021/06/28 08:36:39;;;;;;;5.63;3.50;;;;;;;26.80;100.00;97765.66;5015207;28;20045;-81
2021/06/28 08:39:06;;;;;;;7.53;3.85;;;;;;;26.98;100.00;97764.19;5015300;28;20045;-82
2021/06/28 08:41:39;;;;;;;4.72;3.75;;;;;;;27.10;100.00;97766.38;4994447;28;20538;-80
2021/06/28 08:44:07;;;;;;;5.40;3.47;;;;;;;27.27;100.00;97766.53;4975920;28;20101;-80
2021/06/28 08:46:33;;;;;;;7.20;3.65;;;;;;;27.00;100.00;97764.56;4976376;28;20066;-81
2021/06/28 08:49:00;;;;;;;4.30;3.70;;;;;;;27.18;100.00;97761.50;4976086;28;20073;-81
2021/06/28 08:51:27;;;;;;;7.07;3.90;;;;;;;27.17;89.16;97773.84;4975375;28;20054;-81
2021/06/28 08:54:06;;;;;;;4.40;3.58;;;;;;;27.41;100.00;97774.69;4974787;28;20050;-80
2021/06/28 08:56:43;;;;;;;4.13;3.30;;;;;;;27.66;94.87;97769.47;4977046;28;20129;-81
2021/06/28 08:59:15;;;;;;;3.58;3.28;;;;;;;27.79;86.05;97773.22;4976163;28;20053;-81
2021/06/28 09:01:42;;;;;;;10.57;3.60;;;;;;;27.90;100.00;97778.59;4975606;28;20212;-78
2021/06/28 09:04:09;;;;;;;5.60;3.70;;;;;;;28.03;77.73;97771.22;4978212;28;20051;-81
2021/06/28 09:06:37;;;;;;;4.72;3.53;;;;;;;28.19;96.07;97780.41;4960847;28;20053;-80
2021/06/28 09:09:10;;;;;;;5.88;3.30;;;;;;;28.47;88.91;97775.50;4977641;28;20050;-81
2021/06/28 09:11:42;;;;;;;4.55;3.53;;;;;;;28.58;84.87;97778.84;5003239;28;20050;-80
2021/06/28 09:14:11;;;;;;;7.43;3.40;;;;;;;28.90;67.62;97788.13;4997721;28;20540;-79
2021/06/28 09:16:39;;;;;;;4.15;3.30;;;;;;;28.99;81.69;97779.94;4995801;28;20046;-79
2021/06/28 09:19:10;;;;;;;5.18;3.45;;;;;;;28.97;72.22;97781.56;5014021;28;20332;-79
2021/06/28 09:21:41;;;;;;;4.38;3.10;;;;;;;28.95;65.51;97781.22;4998252;28;20621;-80
2021/06/28 09:24:29;;;;;;;4.57;3.58;;;;;;;29.11;56.14;97780.47;4997051;28;20042;-79
2021/06/28 09:27:13;;;;;;;4.72;3.35;;;;;;;29.11;62.45;97783.25;4978252;28;20051;-79
2021/06/28 09:29:56;;;;;;;3.42;2.83;;;;;;;29.52;61.61;97783.47;4993972;28;20054;-79
2021/06/28 09:32:25;;;;;;;4.68;3.38;;;;;;;29.69;58.86;97771.06;4993999;28;20050;-78
2021/06/28 09:34:55;;;;;;;6.85;3.38;;;;;;;29.77;56.49;97771.66;4993912;28;20038;-80
2021/06/28 09:37:25;;;;;;;4.32;3.15;;;;;;;30.29;56.94;97772.25;4979005;28;20053;-81
2021/06/28 09:39:58;;;;;;;3.75;3.10;;;;;;;29.96;53.46;97756.84;4977285;28;20070;-80
2021/06/28 09:42:27;;;;;;;3.30;2.80;;;;;;;31.23;48.09;97751.06;4992850;28;20046;-80
2021/06/28 09:45:14;;;;;;;4.57;3.15;;;;;;;30.67;48.36;97764.00;4985590;28;20514;-81
2021/06/28 09:47:43;;;;;;;5.15;2.85;;;;;;;31.62;50.30;97766.59;4989927;28;20097;-81
2021/06/28 09:50:19;;;;;;;4.03;3.00;;;;;;;31.11;45.34;97759.47;5007118;28;20040;-80
2021/06/28 09:52:52;;;;;;;5.35;2.92;;;;;;;30.68;46.51;97759.97;5011676;28;20122;-81
2021/06/28 09:55:26;;;;;;;4.40;2.70;;;;;;;31.76;44.74;97757.72;5010886;28;20080;-81
2021/06/28 09:58:09;;;;;;;4.80;2.80;;;;;;;31.32;47.24;97773.56;5011674;28;20042;-80
2021/06/28 10:00:41;;;;;;;7.35;3.33;;;;;;;30.51;47.51;97761.28;5013276;28;20052;-81
2021/06/28 10:03:40;;;;;;;3.30;2.90;;;;;;;31.20;48.61;97768.75;5012956;28;20042;-77
2021/06/28 10:08:44;;;;;;;3.80;2.90;;;;;;;31.42;44.51;97766.03;5028339;28;20053;-81
2021/06/28 10:11:22;;;;;;;7.28;3.10;;;;;;;31.78;44.13;97760.84;5013595;28;20061;-80
2021/06/28 10:13:55;;;;;;;3.20;2.90;;;;;;;31.78;45.82;97763.63;5012895;28;20105;-81
2021/06/28 10:16:24;;;;;;;3.30;2.90;;;;;;;31.13;49.65;97765.38;4994888;28;20035;-81
2021/06/28 10:18:54;;;;;;;5.43;3.05;;;;;;;31.97;45.60;97759.78;4993622;28;20410;-80
2021/06/28 10:21:22;;;;;;;5.88;3.05;;;;;;;31.21;50.44;97758.31;5009678;28;20109;-78
2021/06/28 10:23:49;;;;;;;10.35;3.20;;;;;;;30.92;48.14;97754.88;4999908;28;20056;-80
2021/06/28 10:26:15;;;;;;;4.03;2.80;;;;;;;31.64;49.39;97747.34;4996845;28;20042;-79
2021/06/28 10:28:44;;;;;;;3.22;2.60;;;;;;;32.35;41.75;97750.41;5012181;28;20042;-80
2021/06/28 10:31:12;;;;;;;3.60;2.80;;;;;;;31.15;40.39;97752.50;5008607;28;20046;-80
2021/06/28 10:33:42;;;;;;;8.02;3.20;;;;;;;31.46;47.63;97757.56;5001858;28;20482;-79
2021/06/28 10:36:13;;;;;;;6.07;2.95;;;;;;;32.55;42.50;97754.47;4991489;28;20046;-79
2021/06/28 10:38:57;;;;;;;5.78;2.80;;;;;;;31.28;41.77;97742.09;4993029;28;20108;-79
2021/06/28 10:41:49;;;;;;;6.10;3.08;;;;;;;33.01;43.86;97749.88;4993604;28;20042;-79
2021/06/28 10:44:19;;;;;;;7.20;3.05;;;;;;;33.02;47.10;97748.63;4994876;28;20339;-79
2021/06/28 10:46:54;;;;;;;5.32;3.00;;;;;;;32.56;44.21;97735.63;4980135;28;20047;-80
2021/06/28 10:49:45;;;;;;;5.68;2.80;;;;;;;33.21;41.03;97738.28;4995244;28;20078;-80
2021/06/28 10:52:34;;;;;;;7.22;2.97;;;;;;;31.97;39.33;97740.16;4993087;28;20069;-80
2021/06/28 10:55:21;;;;;;;6.28;2.97;;;;;;;32.72;42.21;97738.22;4995327;28;20050;-80
2021/06/28 10:57:54;;;;;;;9.80;3.10;;;;;;;34.62;39.17;97732.16;4997551;28;20038;-79
2021/06/28 11:00:49;;;;;;;5.50;2.60;;;;;;;33.99;39.14;97735.00;4993834;28;20449;-80
2021/06/28 11:03:23;;;;;;;5.83;2.70;;;;;;;35.30;38.25;97724.09;4993879;28;20035;-80
2021/06/28 11:06:09;;;;;;;6.53;3.05;;;;;;;36.12;36.15;97729.97;5009976;28;20285;-80
2021/06/28 11:08:55;;;;;;;3.33;2.75;;;;;;;35.83;33.85;97733.44;5014829;28;20041;-79
2021/06/28 11:11:48;;;;;;;4.38;2.88;;;;;;;34.33;39.21;97732.66;5017025;28;20038;-80
2021/06/28 11:14:18;;;;;;;4.63;2.53;;;;;;;33.46;39.03;97734.44;4999708;28;20462;-80
2021/06/28 11:17:09;;;;;;;2.97;2.67;;;;;;;34.72;35.62;97727.28;5016441;28;20540;-79
2021/06/28 11:19:45;;;;;;;6.32;2.92;;;;;;;34.23;36.57;97736.72;4992743;28;20499;-78
2021/06/28 11:22:30;;;;;;;4.55;2.67;;;;;;;33.40;37.17;97730.72;4977435;28;20106;-82
2021/06/28 11:25:21;;;;;;;6.63;2.75;;;;;;;33.43;36.78;97733.34;4992428;28;20129;-80
2021/06/28 11:27:57;;;;;;;4.78;2.58;;;;;;;32.30;39.79;97728.59;4976753;28;20043;-80
2021/06/28 11:30:27;;;;;;;2.90;2.60;;;;;;;34.27;41.78;97726.13;4977690;28;20047;-80
2021/06/28 11:32:58;;;;;;;3.10;2.78;;;;;;;34.38;39.47;97719.97;4978758;28;20107;-81
2021/06/28 11:35:38;;;;;;;3.47;2.70;;;;;;;34.83;36.55;97719.09;4979658;28;20506;-80